sensor_id;sensor_type;location;lat;lon;timestamp;temperature;humidity
10306;DHT22;5198;52.382;9.020;2022-10-26T00:02:52;10.20;99.90
10306;DHT22;5198;52.382;9.020;2022-10-26T00:06:55;10.10;99.90
10306;DHT22;5198;52.382;9.020;2022-10-26T00:10:59;10.10;99.90
10306;DHT22;5198;52.382;9.020;2022-10-26T00:15:02;10.10;99.90
10306;DHT22;5198;52.382;9.020;2022-10-26T00:19:05;10.00;99.90
10306;DHT22;5198;52.382;9.020;2022-10-26T00:23:08;10.00;99.90
10306;DHT22;5198;52.382;9.020;2022-10-26T00:27:12;10.00;99.90
10306;DHT22;5198;52.382;9.020;2022-10-26T00:31:15;9.90;99.90
10306;DHT22;5198;52.382;9.020;2022-10-26T00:35:18;9.90;99.90
10306;DHT22;5198;52.382;9.020;2022-10-26T00:39:35;9.80;99.90
10306;DHT22;5198;52.382;9.020;2022-10-26T00:43:39;9.80;99.90
10306;DHT22;5198;52.382;9.020;2022-10-26T00:47:43;9.70;99.90
10306;DHT22;5198;52.382;9.020;2022-10-26T00:51:47;9.70;99.90
10306;DHT22;5198;52.382;9.020;2022-10-26T00:55:51;9.70;99.90
10306;DHT22;5198;52.382;9.020;2022-10-26T00:59:56;9.60;99.90
10306;DHT22;5198;52.382;9.020;2022-10-26T01:04:00;9.60;99.90
10306;DHT22;5198;52.382;9.020;2022-10-26T01:08:03;9.60;99.90
10306;DHT22;5198;52.382;9.020;2022-10-26T01:12:06;9.60;99.90
10306;DHT22;5198;52.382;9.020;2022-10-26T01:16:14;9.60;99.90
10306;DHT22;5198;52.382;9.020;2022-10-26T01:29:09;9.60;99.90
10306;DHT22;5198;52.382;9.020;2022-10-26T01:33:25;9.60;99.90
10306;DHT22;5198;52.382;9.020;2022-10-26T01:37:31;9.60;99.90
10306;DHT22;5198;52.382;9.020;2022-10-26T01:41:38;9.60;99.90
10306;DHT22;5198;52.382;9.020;2022-10-26T01:45:45;9.50;99.90
10306;DHT22;5198;52.382;9.020;2022-10-26T01:49:51;9.50;99.90
10306;DHT22;5198;52.382;9.020;2022-10-26T01:53:56;9.40;99.90
10306;DHT22;5198;52.382;9.020;2022-10-26T01:58:01;9.30;99.90
10306;DHT22;5198;52.382;9.020;2022-10-26T02:02:29;9.30;99.90
10306;DHT22;5198;52.382;9.020;2022-10-26T02:06:42;9.30;99.90
10306;DHT22;5198;52.382;9.020;2022-10-26T02:10:49;9.20;99.90
10306;DHT22;5198;52.382;9.020;2022-10-26T02:14:57;9.20;99.90
10306;DHT22;5198;52.382;9.020;2022-10-26T02:19:04;9.20;99.90
10306;DHT22;5198;52.382;9.020;2022-10-26T02:23:08;9.20;99.90
10306;DHT22;5198;52.382;9.020;2022-10-26T02:27:14;9.10;99.90
10306;DHT22;5198;52.382;9.020;2022-10-26T02:31:18;9.00;99.90
10306;DHT22;5198;52.382;9.020;2022-10-26T02:35:22;9.00;99.90
10306;DHT22;5198;52.382;9.020;2022-10-26T02:39:29;9.00;99.90
10306;DHT22;5198;52.382;9.020;2022-10-26T02:43:35;9.00;99.90
10306;DHT22;5198;52.382;9.020;2022-10-26T02:47:39;9.00;99.90
10306;DHT22;5198;52.382;9.020;2022-10-26T02:51:43;9.00;99.90
10306;DHT22;5198;52.382;9.020;2022-10-26T02:55:53;9.00;99.90
10306;DHT22;5198;52.382;9.020;2022-10-26T02:59:56;9.00;99.90
10306;DHT22;5198;52.382;9.020;2022-10-26T03:03:59;9.00;99.90
10306;DHT22;5198;52.382;9.020;2022-10-26T03:08:02;9.00;99.90
10306;DHT22;5198;52.382;9.020;2022-10-26T03:12:07;9.00;99.90
10306;DHT22;5198;52.382;9.020;2022-10-26T03:16:10;9.00;99.90
10306;DHT22;5198;52.382;9.020;2022-10-26T03:20:13;9.00;99.90
10306;DHT22;5198;52.382;9.020;2022-10-26T03:24:15;9.00;99.90
10306;DHT22;5198;52.382;9.020;2022-10-26T03:28:20;9.00;99.90
10306;DHT22;5198;52.382;9.020;2022-10-26T03:32:22;8.90;99.90
10306;DHT22;5198;52.382;9.020;2022-10-26T03:36:25;8.90;99.90
10306;DHT22;5198;52.382;9.020;2022-10-26T03:40:28;8.90;99.90
10306;DHT22;5198;52.382;9.020;2022-10-26T03:44:32;8.90;99.90
10306;DHT22;5198;52.382;9.020;2022-10-26T03:48:35;8.80;99.90
10306;DHT22;5198;52.382;9.020;2022-10-26T03:52:38;8.80;99.90
10306;DHT22;5198;52.382;9.020;2022-10-26T03:56:41;8.70;99.90
10306;DHT22;5198;52.382;9.020;2022-10-26T04:00:45;8.70;99.90
10306;DHT22;5198;52.382;9.020;2022-10-26T04:04:48;8.70;99.90
10306;DHT22;5198;52.382;9.020;2022-10-26T04:08:51;8.70;99.90
10306;DHT22;5198;52.382;9.020;2022-10-26T04:12:58;8.60;99.90
10306;DHT22;5198;52.382;9.020;2022-10-26T04:17:03;8.60;99.90
10306;DHT22;5198;52.382;9.020;2022-10-26T04:21:06;8.70;99.90
10306;DHT22;5198;52.382;9.020;2022-10-26T04:25:09;8.60;99.90
10306;DHT22;5198;52.382;9.020;2022-10-26T04:29:14;8.60;99.90
10306;DHT22;5198;52.382;9.020;2022-10-26T04:33:18;8.60;99.90
10306;DHT22;5198;52.382;9.020;2022-10-26T04:37:21;8.60;99.90
10306;DHT22;5198;52.382;9.020;2022-10-26T04:41:24;8.50;99.90
10306;DHT22;5198;52.382;9.020;2022-10-26T04:45:26;8.50;99.90
10306;DHT22;5198;52.382;9.020;2022-10-26T04:49:33;8.50;99.90
10306;DHT22;5198;52.382;9.020;2022-10-26T04:53:36;8.50;99.90
10306;DHT22;5198;52.382;9.020;2022-10-26T04:57:39;8.50;99.90
10306;DHT22;5198;52.382;9.020;2022-10-26T05:01:45;8.40;99.90
10306;DHT22;5198;52.382;9.020;2022-10-26T05:05:49;8.40;99.90
10306;DHT22;5198;52.382;9.020;2022-10-26T05:09:52;8.40;99.90
10306;DHT22;5198;52.382;9.020;2022-10-26T05:13:55;8.40;99.90
10306;DHT22;5198;52.382;9.020;2022-10-26T05:17:59;8.40;99.90
10306;DHT22;5198;52.382;9.020;2022-10-26T05:22:04;8.30;99.90
10306;DHT22;5198;52.382;9.020;2022-10-26T05:26:07;8.30;99.90
10306;DHT22;5198;52.382;9.020;2022-10-26T05:30:10;8.20;99.90
10306;DHT22;5198;52.382;9.020;2022-10-26T05:34:13;8.20;99.90
10306;DHT22;5198;52.382;9.020;2022-10-26T05:38:17;8.20;99.90
10306;DHT22;5198;52.382;9.020;2022-10-26T05:42:20;8.20;99.90
10306;DHT22;5198;52.382;9.020;2022-10-26T05:46:23;8.20;99.90
10306;DHT22;5198;52.382;9.020;2022-10-26T05:50:26;8.20;99.90
10306;DHT22;5198;52.382;9.020;2022-10-26T05:54:30;8.20;99.90
10306;DHT22;5198;52.382;9.020;2022-10-26T05:58:33;8.30;99.90
10306;DHT22;5198;52.382;9.020;2022-10-26T06:02:39;8.30;99.90
10306;DHT22;5198;52.382;9.020;2022-10-26T06:06:46;8.40;99.90
10306;DHT22;5198;52.382;9.020;2022-10-26T06:10:55;8.40;99.90
10306;DHT22;5198;52.382;9.020;2022-10-26T06:15:00;8.40;99.90
10306;DHT22;5198;52.382;9.020;2022-10-26T06:19:05;8.40;99.90
10306;DHT22;5198;52.382;9.020;2022-10-26T06:23:23;8.50;99.90
10306;DHT22;5198;52.382;9.020;2022-10-26T06:27:34;8.50;99.90
10306;DHT22;5198;52.382;9.020;2022-10-26T06:31:40;8.60;99.90
10306;DHT22;5198;52.382;9.020;2022-10-26T06:35:45;8.70;99.90
10306;DHT22;5198;52.382;9.020;2022-10-26T06:39:50;8.80;99.90
10306;DHT22;5198;52.382;9.020;2022-10-26T06:43:57;8.90;99.90
10306;DHT22;5198;52.382;9.020;2022-10-26T06:48:01;9.00;99.90
10306;DHT22;5198;52.382;9.020;2022-10-26T06:52:09;9.00;99.90
10306;DHT22;5198;52.382;9.020;2022-10-26T06:56:13;9.10;99.90
10306;DHT22;5198;52.382;9.020;2022-10-26T07:00:20;9.20;99.90
10306;DHT22;5198;52.382;9.020;2022-10-26T07:04:23;9.20;99.90
10306;DHT22;5198;52.382;9.020;2022-10-26T07:08:26;9.30;99.90
10306;DHT22;5198;52.382;9.020;2022-10-26T07:12:29;9.30;99.90
10306;DHT22;5198;52.382;9.020;2022-10-26T07:16:35;9.50;99.90
10306;DHT22;5198;52.382;9.020;2022-10-26T07:20:38;9.60;99.90
10306;DHT22;5198;52.382;9.020;2022-10-26T07:24:41;9.70;99.90
10306;DHT22;5198;52.382;9.020;2022-10-26T07:28:46;9.90;99.90
10306;DHT22;5198;52.382;9.020;2022-10-26T07:32:54;10.00;99.90
10306;DHT22;5198;52.382;9.020;2022-10-26T07:36:59;10.20;99.90
10306;DHT22;5198;52.382;9.020;2022-10-26T07:41:02;10.30;99.90
10306;DHT22;5198;52.382;9.020;2022-10-26T07:45:06;10.40;99.90
10306;DHT22;5198;52.382;9.020;2022-10-26T07:49:10;10.50;99.90
10306;DHT22;5198;52.382;9.020;2022-10-26T07:53:18;10.60;99.90
10306;DHT22;5198;52.382;9.020;2022-10-26T07:57:28;10.70;99.90
10306;DHT22;5198;52.382;9.020;2022-10-26T08:01:31;10.80;99.90
10306;DHT22;5198;52.382;9.020;2022-10-26T08:05:35;10.90;99.90
10306;DHT22;5198;52.382;9.020;2022-10-26T08:09:38;11.00;99.90
10306;DHT22;5198;52.382;9.020;2022-10-26T08:13:41;11.10;99.90
10306;DHT22;5198;52.382;9.020;2022-10-26T08:17:44;11.30;99.90
10306;DHT22;5198;52.382;9.020;2022-10-26T08:21:48;11.40;99.90
10306;DHT22;5198;52.382;9.020;2022-10-26T08:25:51;11.50;99.90
10306;DHT22;5198;52.382;9.020;2022-10-26T08:29:59;11.70;99.90
10306;DHT22;5198;52.382;9.020;2022-10-26T08:34:01;11.80;99.90
10306;DHT22;5198;52.382;9.020;2022-10-26T08:38:06;12.00;99.90
10306;DHT22;5198;52.382;9.020;2022-10-26T08:42:10;12.20;99.90
10306;DHT22;5198;52.382;9.020;2022-10-26T08:46:15;12.40;99.90
10306;DHT22;5198;52.382;9.020;2022-10-26T08:50:21;12.50;99.90
10306;DHT22;5198;52.382;9.020;2022-10-26T08:54:29;12.70;99.90
10306;DHT22;5198;52.382;9.020;2022-10-26T08:58:35;12.90;99.90
10306;DHT22;5198;52.382;9.020;2022-10-26T09:02:39;13.10;99.90
10306;DHT22;5198;52.382;9.020;2022-10-26T09:06:44;13.30;99.90
10306;DHT22;5198;52.382;9.020;2022-10-26T09:10:55;13.50;99.90
10306;DHT22;5198;52.382;9.020;2022-10-26T09:15:04;13.60;99.90
10306;DHT22;5198;52.382;9.020;2022-10-26T09:19:25;14.20;99.90
10306;DHT22;5198;52.382;9.020;2022-10-26T11:37:29;26.20;99.90
10306;DHT22;5198;52.382;9.020;2022-10-26T11:41:35;26.10;99.90
10306;DHT22;5198;52.382;9.020;2022-10-26T11:45:39;26.40;99.90
10306;DHT22;5198;52.382;9.020;2022-10-26T11:49:43;26.90;99.90
10306;DHT22;5198;52.382;9.020;2022-10-26T11:53:49;27.30;99.90
10306;DHT22;5198;52.382;9.020;2022-10-26T11:57:52;27.70;99.90
10306;DHT22;5198;52.382;9.020;2022-10-26T12:01:57;28.00;99.90
10306;DHT22;5198;52.382;9.020;2022-10-26T12:06:02;28.20;99.90
10306;DHT22;5198;52.382;9.020;2022-10-26T12:10:09;28.30;99.90
10306;DHT22;5198;52.382;9.020;2022-10-26T12:14:17;28.70;99.90
10306;DHT22;5198;52.382;9.020;2022-10-26T12:18:23;28.90;99.90
10306;DHT22;5198;52.382;9.020;2022-10-26T12:22:47;29.20;99.90
10306;DHT22;5198;52.382;9.020;2022-10-26T12:26:53;29.20;99.90
10306;DHT22;5198;52.382;9.020;2022-10-26T12:31:02;29.00;99.90
10306;DHT22;5198;52.382;9.020;2022-10-26T12:35:32;28.60;99.90
10306;DHT22;5198;52.382;9.020;2022-10-26T12:39:35;27.80;99.90
10306;DHT22;5198;52.382;9.020;2022-10-26T12:43:40;27.10;99.90
10306;DHT22;5198;52.382;9.020;2022-10-26T12:52:24;25.80;99.90
10306;DHT22;5198;52.382;9.020;2022-10-26T12:56:28;25.20;99.90
10306;DHT22;5198;52.382;9.020;2022-10-26T13:00:35;24.70;99.90
10306;DHT22;5198;52.382;9.020;2022-10-26T13:04:53;24.30;99.90
10306;DHT22;5198;52.382;9.020;2022-10-26T13:09:06;23.90;99.90
10306;DHT22;5198;52.382;9.020;2022-10-26T13:13:17;23.70;99.90
10306;DHT22;5198;52.382;9.020;2022-10-26T13:17:25;23.40;99.90
10306;DHT22;5198;52.382;9.020;2022-10-26T13:21:28;23.10;99.90
10306;DHT22;5198;52.382;9.020;2022-10-26T13:25:31;22.90;99.90
10306;DHT22;5198;52.382;9.020;2022-10-26T13:30:09;22.70;99.90
10306;DHT22;5198;52.382;9.020;2022-10-26T13:34:02;22.50;99.90
10306;DHT22;5198;52.382;9.020;2022-10-26T13:38:06;22.30;99.90
10306;DHT22;5198;52.382;9.020;2022-10-26T13:42:12;22.10;99.90
10306;DHT22;5198;52.382;9.020;2022-10-26T13:46:21;21.90;99.90
10306;DHT22;5198;52.382;9.020;2022-10-26T13:50:26;21.80;99.90
10306;DHT22;5198;52.382;9.020;2022-10-26T13:54:33;21.60;99.90
10306;DHT22;5198;52.382;9.020;2022-10-26T13:58:38;21.50;99.90
10306;DHT22;5198;52.382;9.020;2022-10-26T14:02:45;21.40;99.90
10306;DHT22;5198;52.382;9.020;2022-10-26T14:06:49;21.30;99.90
10306;DHT22;5198;52.382;9.020;2022-10-26T14:10:54;21.20;99.90
10306;DHT22;5198;52.382;9.020;2022-10-26T14:15:00;21.10;99.90
10306;DHT22;5198;52.382;9.020;2022-10-26T14:19:04;21.10;99.90
10306;DHT22;5198;52.382;9.020;2022-10-26T14:27:26;20.90;99.90
10306;DHT22;5198;52.382;9.020;2022-10-26T14:31:30;20.80;99.90
10306;DHT22;5198;52.382;9.020;2022-10-26T14:35:33;20.70;99.90
10306;DHT22;5198;52.382;9.020;2022-10-26T14:39:37;20.70;99.90
10306;DHT22;5198;52.382;9.020;2022-10-26T14:43:42;20.60;99.90
10306;DHT22;5198;52.382;9.020;2022-10-26T14:47:45;20.70;99.90
10306;DHT22;5198;52.382;9.020;2022-10-26T14:51:54;20.70;99.90
10306;DHT22;5198;52.382;9.020;2022-10-26T14:55:58;20.70;99.90
10306;DHT22;5198;52.382;9.020;2022-10-26T15:00:09;20.70;99.90
10306;DHT22;5198;52.382;9.020;2022-10-26T15:04:21;20.60;99.90
10306;DHT22;5198;52.382;9.020;2022-10-26T15:08:40;20.60;99.90
10306;DHT22;5198;52.382;9.020;2022-10-26T15:12:57;20.60;99.90
10306;DHT22;5198;52.382;9.020;2022-10-26T15:17:01;20.60;99.90
10306;DHT22;5198;52.382;9.020;2022-10-26T15:21:06;20.50;99.90
10306;DHT22;5198;52.382;9.020;2022-10-26T15:25:19;20.50;99.90
10306;DHT22;5198;52.382;9.020;2022-10-26T15:29:36;20.50;99.90
10306;DHT22;5198;52.382;9.020;2022-10-26T15:33:41;20.50;99.90
10306;DHT22;5198;52.382;9.020;2022-10-26T15:37:45;20.50;99.90
10306;DHT22;5198;52.382;9.020;2022-10-26T15:41:48;20.40;99.90
10306;DHT22;5198;52.382;9.020;2022-10-26T15:45:52;20.30;99.90
10306;DHT22;5198;52.382;9.020;2022-10-26T15:49:59;20.10;99.90
10306;DHT22;5198;52.382;9.020;2022-10-26T15:54:04;20.00;99.90
10306;DHT22;5198;52.382;9.020;2022-10-26T15:58:07;19.80;99.90
10306;DHT22;5198;52.382;9.020;2022-10-26T16:02:11;19.70;99.90
10306;DHT22;5198;52.382;9.020;2022-10-26T16:06:16;19.50;99.90
10306;DHT22;5198;52.382;9.020;2022-10-26T16:10:20;19.40;99.90
10306;DHT22;5198;52.382;9.020;2022-10-26T16:14:23;19.30;99.90
10306;DHT22;5198;52.382;9.020;2022-10-26T16:18:33;19.10;99.90
10306;DHT22;5198;52.382;9.020;2022-10-26T16:22:37;19.00;99.90
10306;DHT22;5198;52.382;9.020;2022-10-26T16:26:42;18.80;99.90
10306;DHT22;5198;52.382;9.020;2022-10-26T16:30:45;18.70;99.90
10306;DHT22;5198;52.382;9.020;2022-10-26T16:34:48;18.50;99.90
10306;DHT22;5198;52.382;9.020;2022-10-26T16:38:52;18.40;99.90
10306;DHT22;5198;52.382;9.020;2022-10-26T16:42:55;18.20;99.90
10306;DHT22;5198;52.382;9.020;2022-10-26T16:46:58;18.10;99.90
10306;DHT22;5198;52.382;9.020;2022-10-26T16:51:05;18.00;99.90
10306;DHT22;5198;52.382;9.020;2022-10-26T16:55:09;18.00;99.90
10306;DHT22;5198;52.382;9.020;2022-10-26T16:59:12;17.80;99.90
10306;DHT22;5198;52.382;9.020;2022-10-26T17:03:15;17.80;99.90
10306;DHT22;5198;52.382;9.020;2022-10-26T17:07:18;17.70;99.90
10306;DHT22;5198;52.382;9.020;2022-10-26T17:11:22;17.60;99.90
10306;DHT22;5198;52.382;9.020;2022-10-26T17:15:25;17.60;99.90
10306;DHT22;5198;52.382;9.020;2022-10-26T17:19:29;17.50;99.90
10306;DHT22;5198;52.382;9.020;2022-10-26T17:23:32;17.40;99.90
10306;DHT22;5198;52.382;9.020;2022-10-26T17:27:36;17.40;99.90
10306;DHT22;5198;52.382;9.020;2022-10-26T17:31:45;17.30;99.90
10306;DHT22;5198;52.382;9.020;2022-10-26T17:35:51;17.20;99.90
10306;DHT22;5198;52.382;9.020;2022-10-26T17:39:54;17.10;99.90
10306;DHT22;5198;52.382;9.020;2022-10-26T17:43:58;17.00;99.90
10306;DHT22;5198;52.382;9.020;2022-10-26T17:48:02;16.90;99.90
10306;DHT22;5198;52.382;9.020;2022-10-26T17:52:05;16.80;99.90
10306;DHT22;5198;52.382;9.020;2022-10-26T17:56:09;16.70;99.90
10306;DHT22;5198;52.382;9.020;2022-10-26T18:00:14;16.60;99.90
10306;DHT22;5198;52.382;9.020;2022-10-26T18:04:18;16.50;99.90
10306;DHT22;5198;52.382;9.020;2022-10-26T18:08:23;16.50;99.90
10306;DHT22;5198;52.382;9.020;2022-10-26T18:12:26;16.40;99.90
10306;DHT22;5198;52.382;9.020;2022-10-26T18:16:31;16.30;99.90
10306;DHT22;5198;52.382;9.020;2022-10-26T18:20:33;16.20;99.90
10306;DHT22;5198;52.382;9.020;2022-10-26T18:24:36;16.10;99.90
10306;DHT22;5198;52.382;9.020;2022-10-26T18:28:39;16.00;99.90
10306;DHT22;5198;52.382;9.020;2022-10-26T18:32:43;16.00;99.90
10306;DHT22;5198;52.382;9.020;2022-10-26T18:36:46;15.90;99.90
10306;DHT22;5198;52.382;9.020;2022-10-26T18:40:52;15.90;99.90
10306;DHT22;5198;52.382;9.020;2022-10-26T18:44:55;15.80;99.90
10306;DHT22;5198;52.382;9.020;2022-10-26T18:49:03;15.80;99.90
10306;DHT22;5198;52.382;9.020;2022-10-26T18:53:06;15.80;99.90
10306;DHT22;5198;52.382;9.020;2022-10-26T18:57:13;15.70;99.90
10306;DHT22;5198;52.382;9.020;2022-10-26T19:01:16;15.70;99.90
10306;DHT22;5198;52.382;9.020;2022-10-26T19:05:21;15.70;99.90
10306;DHT22;5198;52.382;9.020;2022-10-26T19:09:24;15.70;99.90
10306;DHT22;5198;52.382;9.020;2022-10-26T19:13:26;15.70;99.90
10306;DHT22;5198;52.382;9.020;2022-10-26T19:17:29;15.70;99.90
10306;DHT22;5198;52.382;9.020;2022-10-26T19:21:34;15.70;99.90
10306;DHT22;5198;52.382;9.020;2022-10-26T19:25:37;15.70;99.90
10306;DHT22;5198;52.382;9.020;2022-10-26T19:29:39;15.70;99.90
10306;DHT22;5198;52.382;9.020;2022-10-26T19:33:42;15.80;99.90
10306;DHT22;5198;52.382;9.020;2022-10-26T19:37:46;15.80;99.90
10306;DHT22;5198;52.382;9.020;2022-10-26T19:41:50;15.90;99.90
10306;DHT22;5198;52.382;9.020;2022-10-26T19:45:53;15.90;99.90
10306;DHT22;5198;52.382;9.020;2022-10-26T19:49:56;16.00;99.90
10306;DHT22;5198;52.382;9.020;2022-10-26T19:54:01;16.00;99.90
10306;DHT22;5198;52.382;9.020;2022-10-26T19:58:06;16.10;99.90
10306;DHT22;5198;52.382;9.020;2022-10-26T20:02:09;16.10;99.90
10306;DHT22;5198;52.382;9.020;2022-10-26T20:06:12;16.20;99.90
10306;DHT22;5198;52.382;9.020;2022-10-26T20:10:17;16.20;99.90
10306;DHT22;5198;52.382;9.020;2022-10-26T20:14:20;16.20;99.90
10306;DHT22;5198;52.382;9.020;2022-10-26T20:18:23;16.20;99.90
10306;DHT22;5198;52.382;9.020;2022-10-26T20:22:25;16.20;99.90
10306;DHT22;5198;52.382;9.020;2022-10-26T20:26:30;16.20;99.90
10306;DHT22;5198;52.382;9.020;2022-10-26T20:30:33;16.10;99.90
10306;DHT22;5198;52.382;9.020;2022-10-26T20:34:38;16.10;99.90
10306;DHT22;5198;52.382;9.020;2022-10-26T20:38:46;16.10;99.90
10306;DHT22;5198;52.382;9.020;2022-10-26T20:42:51;16.00;99.90
10306;DHT22;5198;52.382;9.020;2022-10-26T20:46:54;15.90;99.90
10306;DHT22;5198;52.382;9.020;2022-10-26T20:50:58;15.90;99.90
10306;DHT22;5198;52.382;9.020;2022-10-26T20:55:05;15.80;99.90
10306;DHT22;5198;52.382;9.020;2022-10-26T20:59:16;15.80;99.90
10306;DHT22;5198;52.382;9.020;2022-10-26T21:03:21;15.70;99.90
10306;DHT22;5198;52.382;9.020;2022-10-26T21:07:24;15.70;99.90
10306;DHT22;5198;52.382;9.020;2022-10-26T21:11:27;15.70;99.90
10306;DHT22;5198;52.382;9.020;2022-10-26T21:15:32;15.70;99.90
10306;DHT22;5198;52.382;9.020;2022-10-26T21:19:36;15.70;99.90
10306;DHT22;5198;52.382;9.020;2022-10-26T21:23:39;15.60;99.90
10306;DHT22;5198;52.382;9.020;2022-10-26T21:27:42;15.60;99.90
10306;DHT22;5198;52.382;9.020;2022-10-26T21:31:46;15.50;99.90
10306;DHT22;5198;52.382;9.020;2022-10-26T21:35:52;15.50;99.90
10306;DHT22;5198;52.382;9.020;2022-10-26T21:39:55;15.50;99.90
10306;DHT22;5198;52.382;9.020;2022-10-26T21:43:59;15.50;99.90
10306;DHT22;5198;52.382;9.020;2022-10-26T21:48:17;15.40;99.90
10306;DHT22;5198;52.382;9.020;2022-10-26T21:52:21;15.40;99.90
10306;DHT22;5198;52.382;9.020;2022-10-26T21:56:24;15.40;99.90
10306;DHT22;5198;52.382;9.020;2022-10-26T22:00:27;15.30;99.90
10306;DHT22;5198;52.382;9.020;2022-10-26T22:04:32;15.30;99.90
10306;DHT22;5198;52.382;9.020;2022-10-26T22:08:35;15.30;99.90
10306;DHT22;5198;52.382;9.020;2022-10-26T22:12:38;15.20;99.90
10306;DHT22;5198;52.382;9.020;2022-10-26T22:16:41;15.20;99.90
10306;DHT22;5198;52.382;9.020;2022-10-26T22:20:55;15.20;99.90
10306;DHT22;5198;52.382;9.020;2022-10-26T22:24:57;15.20;99.90
10306;DHT22;5198;52.382;9.020;2022-10-26T22:29:00;15.10;99.90
10306;DHT22;5198;52.382;9.020;2022-10-26T22:33:03;15.10;99.90
10306;DHT22;5198;52.382;9.020;2022-10-26T22:37:07;15.10;99.90
10306;DHT22;5198;52.382;9.020;2022-10-26T22:41:10;15.10;99.90
10306;DHT22;5198;52.382;9.020;2022-10-26T22:45:13;15.00;99.90
10306;DHT22;5198;52.382;9.020;2022-10-26T22:49:16;15.10;99.90
10306;DHT22;5198;52.382;9.020;2022-10-26T22:53:20;15.00;99.90
10306;DHT22;5198;52.382;9.020;2022-10-26T22:57:23;15.00;99.90
10306;DHT22;5198;52.382;9.020;2022-10-26T23:01:27;15.00;99.90
10306;DHT22;5198;52.382;9.020;2022-10-26T23:05:32;14.90;99.90
10306;DHT22;5198;52.382;9.020;2022-10-26T23:09:36;14.90;99.90
10306;DHT22;5198;52.382;9.020;2022-10-26T23:13:39;14.90;99.90
10306;DHT22;5198;52.382;9.020;2022-10-26T23:17:42;14.90;99.90
10306;DHT22;5198;52.382;9.020;2022-10-26T23:21:44;14.80;99.90
10306;DHT22;5198;52.382;9.020;2022-10-26T23:25:49;14.80;99.90
10306;DHT22;5198;52.382;9.020;2022-10-26T23:29:51;14.80;99.90
10306;DHT22;5198;52.382;9.020;2022-10-26T23:33:55;14.80;99.90
10306;DHT22;5198;52.382;9.020;2022-10-26T23:37:58;14.80;99.90
10306;DHT22;5198;52.382;9.020;2022-10-26T23:42:02;14.70;99.90
10306;DHT22;5198;52.382;9.020;2022-10-26T23:46:05;14.70;99.90
10306;DHT22;5198;52.382;9.020;2022-10-26T23:50:08;14.70;99.90
10306;DHT22;5198;52.382;9.020;2022-10-26T23:54:11;14.70;99.90
10306;DHT22;5198;52.382;9.020;2022-10-26T23:58:15;14.80;99.90
